sensor_id;sensor_type;location;lat;lon;timestamp;P1;durP1;ratioP1;P2;durP2;ratioP2
8268;SDS011;4174;48.304;16.364;2023-08-07T00:05:46;2.70;;;0.50;;
8268;SDS011;4174;48.304;16.364;2023-08-07T00:11:49;2.63;;;0.50;;
8268;SDS011;4174;48.304;16.364;2023-08-07T00:17:53;2.67;;;0.60;;
8268;SDS011;4174;48.304;16.364;2023-08-07T00:23:57;3.23;;;0.60;;
8268;SDS011;4174;48.304;16.364;2023-08-07T00:30:01;2.40;;;0.50;;
8268;SDS011;4174;48.304;16.364;2023-08-07T00:36:05;4.97;;;0.70;;
8268;SDS011;4174;48.304;16.364;2023-08-07T00:42:08;3.37;;;0.60;;
8268;SDS011;4174;48.304;16.364;2023-08-07T00:48:13;3.07;;;0.50;;
8268;SDS011;4174;48.304;16.364;2023-08-07T00:54:16;2.70;;;0.57;;
8268;SDS011;4174;48.304;16.364;2023-08-07T01:00:17;3.03;;;0.63;;
8268;SDS011;4174;48.304;16.364;2023-08-07T01:06:20;3.37;;;0.60;;
8268;SDS011;4174;48.304;16.364;2023-08-07T01:12:26;3.43;;;0.60;;
8268;SDS011;4174;48.304;16.364;2023-08-07T01:18:26;3.12;;;0.60;;
8268;SDS011;4174;48.304;16.364;2023-08-07T01:24:29;3.22;;;0.60;;
8268;SDS011;4174;48.304;16.364;2023-08-07T01:30:34;2.90;;;0.60;;
8268;SDS011;4174;48.304;16.364;2023-08-07T01:36:35;2.93;;;0.60;;
8268;SDS011;4174;48.304;16.364;2023-08-07T01:42:39;3.23;;;0.73;;
8268;SDS011;4174;48.304;16.364;2023-08-07T01:48:43;3.93;;;0.70;;
8268;SDS011;4174;48.304;16.364;2023-08-07T01:54:47;3.03;;;0.63;;
8268;SDS011;4174;48.304;16.364;2023-08-07T02:00:52;3.28;;;0.70;;
8268;SDS011;4174;48.304;16.364;2023-08-07T02:06:54;3.37;;;0.70;;
8268;SDS011;4174;48.304;16.364;2023-08-07T02:12:58;4.60;;;0.80;;
8268;SDS011;4174;48.304;16.364;2023-08-07T02:19:02;3.33;;;0.77;;
8268;SDS011;4174;48.304;16.364;2023-08-07T02:25:06;4.50;;;0.87;;
8268;SDS011;4174;48.304;16.364;2023-08-07T02:31:10;3.33;;;0.80;;
8268;SDS011;4174;48.304;16.364;2023-08-07T02:37:14;3.30;;;0.80;;
8268;SDS011;4174;48.304;16.364;2023-08-07T02:43:17;3.37;;;0.60;;
8268;SDS011;4174;48.304;16.364;2023-08-07T02:49:21;3.20;;;0.60;;
8268;SDS011;4174;48.304;16.364;2023-08-07T02:55:25;5.10;;;0.70;;
8268;SDS011;4174;48.304;16.364;2023-08-07T03:01:28;3.53;;;0.70;;
8268;SDS011;4174;48.304;16.364;2023-08-07T03:07:32;4.32;;;0.80;;
8268;SDS011;4174;48.304;16.364;2023-08-07T03:13:36;3.37;;;0.80;;
8268;SDS011;4174;48.304;16.364;2023-08-07T03:19:41;3.17;;;0.70;;
8268;SDS011;4174;48.304;16.364;2023-08-07T03:25:43;4.03;;;0.70;;
8268;SDS011;4174;48.304;16.364;2023-08-07T03:31:47;3.67;;;0.60;;
8268;SDS011;4174;48.304;16.364;2023-08-07T03:37:50;3.03;;;0.60;;
8268;SDS011;4174;48.304;16.364;2023-08-07T03:43:54;3.60;;;0.60;;
8268;SDS011;4174;48.304;16.364;2023-08-07T03:49:57;2.93;;;0.60;;
8268;SDS011;4174;48.304;16.364;2023-08-07T03:56:01;3.10;;;0.53;;
8268;SDS011;4174;48.304;16.364;2023-08-07T04:02:05;3.10;;;0.50;;
8268;SDS011;4174;48.304;16.364;2023-08-07T04:08:09;3.13;;;0.60;;
8268;SDS011;4174;48.304;16.364;2023-08-07T04:14:13;4.00;;;0.60;;
8268;SDS011;4174;48.304;16.364;2023-08-07T04:20:16;2.80;;;0.50;;
8268;SDS011;4174;48.304;16.364;2023-08-07T04:26:20;3.60;;;0.70;;
8268;SDS011;4174;48.304;16.364;2023-08-07T04:32:23;3.80;;;0.60;;
8268;SDS011;4174;48.304;16.364;2023-08-07T04:38:29;3.27;;;0.57;;
8268;SDS011;4174;48.304;16.364;2023-08-07T04:44:32;2.58;;;0.70;;
8268;SDS011;4174;48.304;16.364;2023-08-07T04:50:36;2.53;;;0.50;;
8268;SDS011;4174;48.304;16.364;2023-08-07T04:56:40;2.73;;;0.60;;
8268;SDS011;4174;48.304;16.364;2023-08-07T05:02:43;2.60;;;0.50;;
8268;SDS011;4174;48.304;16.364;2023-08-07T05:08:47;3.17;;;0.52;;
8268;SDS011;4174;48.304;16.364;2023-08-07T05:14:50;3.23;;;0.50;;
8268;SDS011;4174;48.304;16.364;2023-08-07T05:20:54;3.70;;;0.40;;
8268;SDS011;4174;48.304;16.364;2023-08-07T05:26:59;2.07;;;0.40;;
8268;SDS011;4174;48.304;16.364;2023-08-07T05:33:03;2.00;;;0.30;;
8268;SDS011;4174;48.304;16.364;2023-08-07T05:39:06;2.23;;;0.40;;
8268;SDS011;4174;48.304;16.364;2023-08-07T05:45:10;2.43;;;0.30;;
8268;SDS011;4174;48.304;16.364;2023-08-07T05:51:14;3.53;;;0.40;;
8268;SDS011;4174;48.304;16.364;2023-08-07T05:57:17;3.63;;;0.40;;
8268;SDS011;4174;48.304;16.364;2023-08-07T06:03:20;2.42;;;0.40;;
8268;SDS011;4174;48.304;16.364;2023-08-07T06:09:25;1.65;;;0.30;;
8268;SDS011;4174;48.304;16.364;2023-08-07T06:15:29;1.70;;;0.30;;
8268;SDS011;4174;48.304;16.364;2023-08-07T06:21:31;1.40;;;0.27;;
8268;SDS011;4174;48.304;16.364;2023-08-07T06:27:35;2.10;;;0.80;;
8268;SDS011;4174;48.304;16.364;2023-08-07T06:33:39;1.30;;;0.30;;
8268;SDS011;4174;48.304;16.364;2023-08-07T06:39:43;1.87;;;0.23;;
8268;SDS011;4174;48.304;16.364;2023-08-07T06:45:49;3.97;;;0.50;;
8268;SDS011;4174;48.304;16.364;2023-08-07T06:51:51;1.80;;;0.30;;
8268;SDS011;4174;48.304;16.364;2023-08-07T06:57:58;2.60;;;0.30;;
8268;SDS011;4174;48.304;16.364;2023-08-07T07:04:00;3.63;;;0.40;;
8268;SDS011;4174;48.304;16.364;2023-08-07T07:10:04;1.60;;;0.30;;
8268;SDS011;4174;48.304;16.364;2023-08-07T07:16:11;2.10;;;0.30;;
8268;SDS011;4174;48.304;16.364;2023-08-07T07:22:15;3.90;;;0.40;;
8268;SDS011;4174;48.304;16.364;2023-08-07T07:28:18;2.37;;;0.43;;
8268;SDS011;4174;48.304;16.364;2023-08-07T07:34:21;3.50;;;0.40;;
8268;SDS011;4174;48.304;16.364;2023-08-07T07:40:24;3.00;;;0.60;;
8268;SDS011;4174;48.304;16.364;2023-08-07T07:46:28;2.80;;;0.50;;
8268;SDS011;4174;48.304;16.364;2023-08-07T07:52:31;2.50;;;0.50;;
8268;SDS011;4174;48.304;16.364;2023-08-07T07:58:35;2.77;;;0.60;;
8268;SDS011;4174;48.304;16.364;2023-08-07T08:04:39;5.07;;;0.73;;
8268;SDS011;4174;48.304;16.364;2023-08-07T08:10:43;3.37;;;0.60;;
8268;SDS011;4174;48.304;16.364;2023-08-07T08:16:45;3.40;;;0.70;;
8268;SDS011;4174;48.304;16.364;2023-08-07T08:22:49;2.65;;;0.50;;
8268;SDS011;4174;48.304;16.364;2023-08-07T08:28:52;4.73;;;0.50;;
8268;SDS011;4174;48.304;16.364;2023-08-07T08:34:56;3.00;;;0.60;;
8268;SDS011;4174;48.304;16.364;2023-08-07T08:41:01;4.30;;;0.50;;
8268;SDS011;4174;48.304;16.364;2023-08-07T08:47:03;2.50;;;0.50;;
8268;SDS011;4174;48.304;16.364;2023-08-07T08:53:06;2.70;;;0.50;;
8268;SDS011;4174;48.304;16.364;2023-08-07T08:59:08;3.37;;;0.60;;
8268;SDS011;4174;48.304;16.364;2023-08-07T09:05:11;3.07;;;0.50;;
8268;SDS011;4174;48.304;16.364;2023-08-07T09:11:14;2.62;;;0.50;;
8268;SDS011;4174;48.304;16.364;2023-08-07T09:17:17;2.47;;;0.50;;
8268;SDS011;4174;48.304;16.364;2023-08-07T09:23:20;3.10;;;0.50;;
8268;SDS011;4174;48.304;16.364;2023-08-07T09:29:23;3.42;;;0.50;;
8268;SDS011;4174;48.304;16.364;2023-08-07T09:35:28;3.03;;;0.60;;
8268;SDS011;4174;48.304;16.364;2023-08-07T09:41:30;3.55;;;0.70;;
8268;SDS011;4174;48.304;16.364;2023-08-07T09:47:32;2.93;;;0.60;;
8268;SDS011;4174;48.304;16.364;2023-08-07T09:53:36;4.03;;;0.70;;
8268;SDS011;4174;48.304;16.364;2023-08-07T09:59:40;3.40;;;0.70;;
8268;SDS011;4174;48.304;16.364;2023-08-07T10:05:44;3.75;;;0.70;;
8268;SDS011;4174;48.304;16.364;2023-08-07T10:11:46;4.30;;;0.80;;
8268;SDS011;4174;48.304;16.364;2023-08-07T10:17:49;3.35;;;0.80;;
8268;SDS011;4174;48.304;16.364;2023-08-07T10:23:53;3.40;;;0.70;;
8268;SDS011;4174;48.304;16.364;2023-08-07T10:29:56;3.20;;;0.70;;
8268;SDS011;4174;48.304;16.364;2023-08-07T10:35:58;3.47;;;0.70;;
8268;SDS011;4174;48.304;16.364;2023-08-07T10:42:03;3.22;;;0.70;;
8268;SDS011;4174;48.304;16.364;2023-08-07T10:48:07;3.50;;;0.80;;
8268;SDS011;4174;48.304;16.364;2023-08-07T10:54:10;3.62;;;0.80;;
8268;SDS011;4174;48.304;16.364;2023-08-07T11:00:12;3.80;;;0.70;;
8268;SDS011;4174;48.304;16.364;2023-08-07T11:06:21;3.37;;;0.80;;
8268;SDS011;4174;48.304;16.364;2023-08-07T11:12:25;4.15;;;0.90;;
8268;SDS011;4174;48.304;16.364;2023-08-07T11:18:27;4.30;;;1.00;;
8268;SDS011;4174;48.304;16.364;2023-08-07T11:24:31;3.73;;;0.90;;
8268;SDS011;4174;48.304;16.364;2023-08-07T11:30:34;3.70;;;0.90;;
8268;SDS011;4174;48.304;16.364;2023-08-07T11:36:41;3.80;;;0.90;;
8268;SDS011;4174;48.304;16.364;2023-08-07T11:42:45;4.97;;;1.08;;
8268;SDS011;4174;48.304;16.364;2023-08-07T11:48:49;4.10;;;1.00;;
8268;SDS011;4174;48.304;16.364;2023-08-07T11:54:53;3.73;;;0.90;;
8268;SDS011;4174;48.304;16.364;2023-08-07T12:00:56;4.33;;;0.90;;
8268;SDS011;4174;48.304;16.364;2023-08-07T12:07:01;4.43;;;1.10;;
8268;SDS011;4174;48.304;16.364;2023-08-07T12:13:07;3.90;;;0.90;;
8268;SDS011;4174;48.304;16.364;2023-08-07T12:19:08;3.97;;;0.90;;
8268;SDS011;4174;48.304;16.364;2023-08-07T12:25:11;5.07;;;1.00;;
8268;SDS011;4174;48.304;16.364;2023-08-07T12:31:15;4.97;;;1.20;;
8268;SDS011;4174;48.304;16.364;2023-08-07T12:37:18;4.60;;;1.03;;
8268;SDS011;4174;48.304;16.364;2023-08-07T12:43:23;4.35;;;1.10;;
8268;SDS011;4174;48.304;16.364;2023-08-07T12:49:26;4.55;;;1.12;;
8268;SDS011;4174;48.304;16.364;2023-08-07T12:55:30;4.22;;;1.20;;
8268;SDS011;4174;48.304;16.364;2023-08-07T13:01:33;4.40;;;1.10;;
8268;SDS011;4174;48.304;16.364;2023-08-07T13:07:37;4.30;;;1.10;;
8268;SDS011;4174;48.304;16.364;2023-08-07T13:13:39;4.00;;;1.10;;
8268;SDS011;4174;48.304;16.364;2023-08-07T13:19:43;4.30;;;0.90;;
8268;SDS011;4174;48.304;16.364;2023-08-07T13:25:48;4.30;;;0.90;;
8268;SDS011;4174;48.304;16.364;2023-08-07T13:31:51;4.47;;;1.00;;
8268;SDS011;4174;48.304;16.364;2023-08-07T13:37:54;4.40;;;1.10;;
8268;SDS011;4174;48.304;16.364;2023-08-07T13:43:58;4.47;;;1.00;;
8268;SDS011;4174;48.304;16.364;2023-08-07T13:50:01;4.67;;;1.00;;
8268;SDS011;4174;48.304;16.364;2023-08-07T13:56:06;4.28;;;1.00;;
8268;SDS011;4174;48.304;16.364;2023-08-07T14:02:10;3.67;;;0.90;;
8268;SDS011;4174;48.304;16.364;2023-08-07T14:08:13;4.12;;;1.10;;
8268;SDS011;4174;48.304;16.364;2023-08-07T14:14:16;4.20;;;0.90;;
8268;SDS011;4174;48.304;16.364;2023-08-07T14:20:20;3.60;;;0.88;;
8268;SDS011;4174;48.304;16.364;2023-08-07T14:26:22;3.90;;;0.90;;
8268;SDS011;4174;48.304;16.364;2023-08-07T14:32:25;4.20;;;1.10;;
8268;SDS011;4174;48.304;16.364;2023-08-07T14:38:29;4.93;;;1.10;;
8268;SDS011;4174;48.304;16.364;2023-08-07T14:44:33;4.97;;;1.00;;
8268;SDS011;4174;48.304;16.364;2023-08-07T14:50:36;4.27;;;1.00;;
8268;SDS011;4174;48.304;16.364;2023-08-07T14:56:41;4.97;;;1.10;;
8268;SDS011;4174;48.304;16.364;2023-08-07T15:02:45;4.22;;;0.98;;
8268;SDS011;4174;48.304;16.364;2023-08-07T15:08:48;3.90;;;1.00;;
8268;SDS011;4174;48.304;16.364;2023-08-07T15:14:52;4.00;;;1.00;;
8268;SDS011;4174;48.304;16.364;2023-08-07T15:20:58;5.45;;;1.20;;
8268;SDS011;4174;48.304;16.364;2023-08-07T15:27:00;3.80;;;1.00;;
8268;SDS011;4174;48.304;16.364;2023-08-07T15:33:04;3.90;;;1.00;;
8268;SDS011;4174;48.304;16.364;2023-08-07T15:39:08;4.50;;;1.00;;
8268;SDS011;4174;48.304;16.364;2023-08-07T15:45:12;4.25;;;1.20;;
8268;SDS011;4174;48.304;16.364;2023-08-07T15:51:14;4.90;;;1.67;;
8268;SDS011;4174;48.304;16.364;2023-08-07T15:57:17;4.30;;;1.00;;
8268;SDS011;4174;48.304;16.364;2023-08-07T16:03:22;3.40;;;0.77;;
8268;SDS011;4174;48.304;16.364;2023-08-07T16:09:26;3.55;;;0.80;;
8268;SDS011;4174;48.304;16.364;2023-08-07T16:15:29;3.27;;;0.70;;
8268;SDS011;4174;48.304;16.364;2023-08-07T16:21:33;3.50;;;0.60;;
8268;SDS011;4174;48.304;16.364;2023-08-07T16:27:37;4.30;;;0.77;;
8268;SDS011;4174;48.304;16.364;2023-08-07T16:33:39;3.50;;;0.70;;
8268;SDS011;4174;48.304;16.364;2023-08-07T16:39:44;3.00;;;0.60;;
8268;SDS011;4174;48.304;16.364;2023-08-07T16:45:47;4.00;;;0.50;;
8268;SDS011;4174;48.304;16.364;2023-08-07T16:51:51;2.90;;;0.60;;
8268;SDS011;4174;48.304;16.364;2023-08-07T16:57:57;3.90;;;0.60;;
8268;SDS011;4174;48.304;16.364;2023-08-07T17:04:02;2.67;;;0.50;;
8268;SDS011;4174;48.304;16.364;2023-08-07T17:10:07;2.50;;;0.50;;
8268;SDS011;4174;48.304;16.364;2023-08-07T17:16:11;2.60;;;0.50;;
8268;SDS011;4174;48.304;16.364;2023-08-07T17:22:15;3.35;;;0.47;;
8268;SDS011;4174;48.304;16.364;2023-08-07T17:28:20;2.90;;;0.50;;
8268;SDS011;4174;48.304;16.364;2023-08-07T17:34:24;2.80;;;0.68;;
8268;SDS011;4174;48.304;16.364;2023-08-07T17:40:26;3.40;;;0.50;;
8268;SDS011;4174;48.304;16.364;2023-08-07T17:46:30;2.57;;;0.50;;
8268;SDS011;4174;48.304;16.364;2023-08-07T17:52:33;3.70;;;0.50;;
8268;SDS011;4174;48.304;16.364;2023-08-07T17:58:38;3.05;;;0.50;;
8268;SDS011;4174;48.304;16.364;2023-08-07T18:04:42;3.57;;;0.60;;
8268;SDS011;4174;48.304;16.364;2023-08-07T18:10:45;2.77;;;0.50;;
8268;SDS011;4174;48.304;16.364;2023-08-07T18:16:48;3.23;;;0.60;;
8268;SDS011;4174;48.304;16.364;2023-08-07T18:22:52;2.60;;;0.50;;
8268;SDS011;4174;48.304;16.364;2023-08-07T18:28:56;3.50;;;0.50;;
8268;SDS011;4174;48.304;16.364;2023-08-07T18:34:59;3.90;;;0.70;;
8268;SDS011;4174;48.304;16.364;2023-08-07T18:41:03;3.00;;;0.50;;
8268;SDS011;4174;48.304;16.364;2023-08-07T18:47:06;2.40;;;0.50;;
8268;SDS011;4174;48.304;16.364;2023-08-07T18:53:10;3.43;;;0.70;;
8268;SDS011;4174;48.304;16.364;2023-08-07T18:59:13;2.93;;;0.60;;
8268;SDS011;4174;48.304;16.364;2023-08-07T19:05:17;5.67;;;0.70;;
8268;SDS011;4174;48.304;16.364;2023-08-07T19:11:21;3.50;;;0.70;;
8268;SDS011;4174;48.304;16.364;2023-08-07T19:17:24;3.22;;;0.75;;
8268;SDS011;4174;48.304;16.364;2023-08-07T19:23:28;3.75;;;0.70;;
8268;SDS011;4174;48.304;16.364;2023-08-07T19:29:33;3.30;;;0.70;;
8268;SDS011;4174;48.304;16.364;2023-08-07T19:35:37;4.07;;;0.70;;
8268;SDS011;4174;48.304;16.364;2023-08-07T19:41:40;4.27;;;0.80;;
8268;SDS011;4174;48.304;16.364;2023-08-07T19:47:45;4.53;;;1.00;;
8268;SDS011;4174;48.304;16.364;2023-08-07T19:53:46;3.92;;;0.90;;
8268;SDS011;4174;48.304;16.364;2023-08-07T19:59:51;3.43;;;0.80;;
8268;SDS011;4174;48.304;16.364;2023-08-07T20:05:55;4.75;;;1.10;;
8268;SDS011;4174;48.304;16.364;2023-08-07T20:11:58;4.23;;;1.20;;
8268;SDS011;4174;48.304;16.364;2023-08-07T20:18:02;4.53;;;1.07;;
8268;SDS011;4174;48.304;16.364;2023-08-07T20:24:06;4.00;;;1.00;;
8268;SDS011;4174;48.304;16.364;2023-08-07T20:30:10;3.85;;;0.90;;
8268;SDS011;4174;48.304;16.364;2023-08-07T20:36:13;6.00;;;1.10;;
8268;SDS011;4174;48.304;16.364;2023-08-07T20:42:17;4.47;;;1.00;;
8268;SDS011;4174;48.304;16.364;2023-08-07T20:48:19;3.90;;;1.00;;
8268;SDS011;4174;48.304;16.364;2023-08-07T20:54:23;5.20;;;1.07;;
8268;SDS011;4174;48.304;16.364;2023-08-07T21:00:26;3.83;;;0.95;;
8268;SDS011;4174;48.304;16.364;2023-08-07T21:06:29;5.87;;;1.00;;
8268;SDS011;4174;48.304;16.364;2023-08-07T21:12:33;3.80;;;1.00;;
8268;SDS011;4174;48.304;16.364;2023-08-07T21:18:37;7.50;;;0.90;;
8268;SDS011;4174;48.304;16.364;2023-08-07T21:24:41;4.97;;;0.97;;
8268;SDS011;4174;48.304;16.364;2023-08-07T21:30:44;3.40;;;0.80;;
8268;SDS011;4174;48.304;16.364;2023-08-07T21:36:48;3.47;;;0.80;;
8268;SDS011;4174;48.304;16.364;2023-08-07T21:42:51;4.20;;;0.83;;
8268;SDS011;4174;48.304;16.364;2023-08-07T21:48:55;3.35;;;0.80;;
8268;SDS011;4174;48.304;16.364;2023-08-07T21:55:00;3.20;;;0.70;;
8268;SDS011;4174;48.304;16.364;2023-08-07T22:01:03;3.13;;;0.77;;
8268;SDS011;4174;48.304;16.364;2023-08-07T22:07:08;4.40;;;0.90;;
8268;SDS011;4174;48.304;16.364;2023-08-07T22:13:12;2.90;;;0.60;;
8268;SDS011;4174;48.304;16.364;2023-08-07T22:19:16;3.70;;;0.90;;
8268;SDS011;4174;48.304;16.364;2023-08-07T22:25:19;4.17;;;1.00;;
8268;SDS011;4174;48.304;16.364;2023-08-07T22:31:23;4.23;;;0.90;;
8268;SDS011;4174;48.304;16.364;2023-08-07T22:37:26;4.10;;;0.90;;
8268;SDS011;4174;48.304;16.364;2023-08-07T22:43:29;3.80;;;0.80;;
8268;SDS011;4174;48.304;16.364;2023-08-07T22:49:32;3.67;;;1.00;;
8268;SDS011;4174;48.304;16.364;2023-08-07T22:55:36;4.30;;;0.90;;
8268;SDS011;4174;48.304;16.364;2023-08-07T23:01:40;4.43;;;0.90;;
8268;SDS011;4174;48.304;16.364;2023-08-07T23:07:43;5.87;;;0.97;;
8268;SDS011;4174;48.304;16.364;2023-08-07T23:13:48;4.50;;;1.10;;
8268;SDS011;4174;48.304;16.364;2023-08-07T23:19:52;5.47;;;1.10;;
8268;SDS011;4174;48.304;16.364;2023-08-07T23:25:55;5.18;;;1.20;;
8268;SDS011;4174;48.304;16.364;2023-08-07T23:32:00;3.90;;;1.07;;
8268;SDS011;4174;48.304;16.364;2023-08-07T23:38:04;5.23;;;1.30;;
8268;SDS011;4174;48.304;16.364;2023-08-07T23:44:07;5.20;;;1.10;;
8268;SDS011;4174;48.304;16.364;2023-08-07T23:50:11;4.03;;;1.20;;
8268;SDS011;4174;48.304;16.364;2023-08-07T23:56:15;4.50;;;1.20;;
